Latest Coastal Weather Observations for Larapuna (Eddystone Point)

IDT60701

Issued at 4:42 am EDT Saturday 21 October 2017 (issued every 10 minutes, with the page automatically refreshed every 10 minutes)

About coastal observations | Map of coastal stations | Coastal observations for TAS | Marine services | Other Formats
Station Details ID: 092045 Name: LARAPUNA (EDDYSTONE POINT) Lat: -40.99 Lon: 148.35 Height: 19.7 m
Data from the previous 72 hours. | See also: Recent months at Larapuna (Eddystone Point)
Date/Time
EDT
Temp
°C
Wind Pressure Rain since
9am
mm
Weather Cloud Vis
km
Sea
Height
m
Swell
Dir  Spd
kts
Gust
kts
hPa Trend Height
m
Period
s
Dir
21/04:30am 9.4 SW 9 10 1020.1 - 0.0 - - - - - - -
21/04:00am 9.3 SW 8 10 1020.2 - 0.0 - - - - - - -
21/03:30am 9.5 SW 9 10 1020.4 - 0.0 - - - - - - -
21/03:00am 9.5 SW 8 9 1020.5 - 0.0 - - - - - - -
21/02:30am 9.4 SW 6 7 1020.6 - 0.0 - - - - - - -
21/02:00am 10.3 SSW 9 11 1021.1 - 0.0 - - - - - - -
21/01:30am 10.5 SSW 7 8 1021.5 - 0.0 - - - - - - -
21/01:00am 10.4 SW 5 6 1021.6 - 0.0 - - - - - - -
21/12:30am 10.7 SW 5 6 1021.8 - 0.0 - - - - - - -
21/12:00am 10.7 SW 5 6 1022.0 - 0.0 - - - - - - -
 
Date/Time
EDT
Temp
°C
Wind Pressure Rain since
9am
mm
Weather Cloud Vis
km
Sea
Height
m
Swell
Dir  Spd
kts
Gust
kts
hPa Trend Height
m
Period
s
Dir
20/11:30pm 11.9 SSE 7 7 1022.3 - 0.0 - - - - - - -
20/11:00pm 12.2 SSE 7 8 1022.4 - 0.0 - - - - - - -
20/10:30pm 12.3 SE 7 9 1022.4 - 0.0 - - - - - - -
20/10:00pm 12.6 SE 8 11 1022.4 - 0.0 - - - - - - -
20/09:30pm 12.8 SE 9 11 1022.4 - 0.0 - - - - - - -
20/09:00pm 13.0 SSE 9 11 1022.6 - 0.0 - - - - - - -
20/08:30pm 13.2 S 13 16 1022.2 - 0.0 - - - - - - -
20/08:00pm 13.2 S 14 16 1021.9 - 0.0 - - - - - - -
20/07:30pm 13.7 SW 11 17 1021.3 - 0.0 - - - - - - -
20/07:00pm 15.0 WNW 10 13 1021.1 - 0.0 - - - - - - -
20/06:30pm 16.4 WNW 10 14 1020.8 - 0.0 - - - - - - -
20/06:00pm 16.8 WNW 15 20 1020.5 - 0.0 - - - - - - -
20/05:30pm 17.5 WNW 13 18 1020.2 - 0.0 - - - - - - -
20/05:00pm 17.4 NW 15 20 1020.1 - 0.0 - - - - - - -
20/04:30pm 17.6 WNW 16 21 1020.2 - 0.0 - - - - - - -
20/04:00pm 17.3 WNW 13 19 1020.2 - 0.0 - - - - - - -
20/03:30pm 16.2 WNW 16 22 1020.3 - 0.0 - - - - - - -
20/03:00pm 16.6 WNW 13 21 1020.3 - 0.0 - - - - - - -
20/02:30pm 18.0 ENE 7 11 1020.4 - 0.0 - - - - - - -
20/02:00pm 17.7 SSW 5 8 1020.5 - 0.0 - - - - - - -
20/01:30pm 18.5 W 10 16 1020.4 - 0.0 - - - - - - -
20/01:00pm 18.7 W 10 16 1020.4 - 0.0 - - - - - - -
20/12:30pm 17.6 WNW 11 17 1020.3 - 0.0 - - - - - - -
20/12:00pm 17.5 W 12 20 1020.6 - 0.0 - - - - - - -
20/11:30am 16.9 WNW 13 20 1020.9 - 0.0 - - - - - - -
20/11:00am 16.1 WNW 12 18 1020.8 - 0.0 - - - - - - -
20/10:30am 15.4 W 11 17 1021.0 - 0.0 - - - - - - -
20/10:00am 14.5 WNW 13 19 1020.7 - 0.0 - - - - - - -
20/09:30am 13.9 W 14 21 1020.6 - 0.0 - - - - - - -
20/09:00am 12.8 WNW 15 20 1020.3 - 5.0 - - - - - - -
20/08:30am 12.3 W 13 18 1019.9 - 5.0 - - - - - - -
20/08:00am 11.2 W 11 17 1019.9 - 5.0 - - - - - - -
20/07:30am 10.0 W 8 10 1019.5 - 5.0 - - - - - - -
20/07:00am 9.2 WNW 11 16 1019.1 - 5.0 - - - - - - -
20/06:30am 8.8 WNW 9 12 1018.9 - 5.0 - - - - - - -
20/06:00am 9.1 WNW 10 14 1018.2 - 5.0 Recent precip. - - - - - -
20/05:30am 9.5 WNW 9 12 1017.6 - 5.0 - - - - - - -
20/05:00am 10.1 WNW 11 14 1017.2 - 4.8 - - - - - - -
20/04:30am 10.3 W 5 10 1017.0 - 4.8 - - - - - - -
20/04:16am 11.1 NW 12 19 1017.0 - 4.8 - - - - - - -
20/04:00am 10.1 NNW 6 8 1017.1 - 4.8 - - - - - - -
20/03:30am 9.9 NW 4 7 1017.4 - 4.8 - - - - - - -
20/03:00am 9.8 W 4 5 1017.5 - 4.6 - - - - - - -
20/02:30am 9.8 WSW 6 11 1017.9 - 4.6 - - - - - - -
20/02:00am 9.6 WSW 8 10 1018.2 - 4.6 - - - - - - -
20/01:30am 10.3 W 12 15 1017.9 - 4.6 - - - - - - -
20/01:00am 10.7 WNW 14 19 1017.4 - 4.6 - - - - - - -
20/12:30am 11.0 WNW 13 17 1016.9 - 4.6 - - - - - - -
20/12:00am 11.6 WNW 16 21 1016.5 - 4.6 - - - - - - -
 
Date/Time
EDT
Temp
°C
Wind Pressure Rain since
9am
mm
Weather Cloud Vis
km
Sea
Height
m
Swell
Dir  Spd
kts
Gust
kts
hPa Trend Height
m
Period
s
Dir
19/11:30pm 11.9 WNW 14 18 1016.2 - 4.6 - - - - - - -
19/11:00pm 12.5 WNW 17 25 1015.7 - 4.6 - - - - - - -
19/10:30pm 12.7 WNW 13 17 1015.6 - 4.6 - - - - - - -
19/10:00pm 13.2 WNW 13 19 1015.5 - 4.6 - - - - - - -
19/09:30pm 13.4 W 9 16 1015.2 - 4.6 - - - - - - -
19/09:00pm 14.0 WNW 14 22 1014.2 - 4.6 - - - - - - -
19/08:33pm 14.5 WNW 20 30 1013.2 - 4.6 - - - - - - -
19/08:30pm 14.6 WNW 21 30 1013.1 - 4.6 - - - - - - -
19/08:14pm 14.7 WNW 19 29 1012.6 - 4.6 - - - - - - -
19/08:00pm 15.0 WNW 20 29 1012.3 - 4.6 - - - - - - -
19/07:36pm 15.2 WNW 24 34 1012.2 - 4.6 - - - - - - -
19/07:30pm 15.2 NW 23 32 1012.0 - 4.6 - - - - - - -
19/07:01pm 15.6 NW 21 31 1012.1 - 4.6 - - - - - - -
19/07:00pm 15.7 NW 21 30 1012.1 - 4.6 - - - - - - -
19/06:39pm 16.0 NW 22 32 1012.0 - 4.6 - - - - - - -
19/06:30pm 16.2 WNW 20 28 1011.9 - 4.6 - - - - - - -
19/06:00pm 16.4 WNW 18 30 1012.3 - 4.6 - - - - - - -
19/05:48pm 16.5 NW 19 29 1012.5 - 4.6 - - - - - - -
19/05:30pm 16.5 NW 18 27 1012.5 - 4.6 - - - - - - -
19/05:25pm 16.7 NW 17 27 1012.4 - 4.6 - - - - - - -
19/05:00pm 17.3 NW 20 25 1012.3 - 4.6 - - - - - - -
19/04:30pm 18.3 NW 18 24 1012.3 - 4.6 - - - - - - -
19/04:04pm 18.2 NW 18 28 1012.0 - 4.6 - - - - - - -
19/04:00pm 18.3 WNW 18 26 1012.1 - 4.6 - - - - - - -
19/03:47pm 18.3 WNW 18 28 1012.1 - 4.6 - - - - - - -
19/03:30pm 18.6 WNW 17 24 1012.1 - 4.6 - - - - - - -
19/03:00pm 18.4 WNW 20 30 1012.2 - 4.6 - - - - - - -
19/02:30pm 17.3 WNW 21 32 1012.4 - 4.6 - - - - - - -
19/02:14pm 17.5 NW 18 30 1011.8 - 4.6 - - - - - - -
19/02:00pm 17.2 NW 19 27 1012.0 - 4.6 - - - - - - -
19/01:30pm 16.8 NW 21 28 1012.3 - 4.2 - - - - - - -
19/01:00pm 16.0 NNW 17 23 1012.6 - 4.0 - - - - - - -
19/12:30pm 14.7 NNW 20 25 1012.7 - 3.8 - - - - - - -
19/12:00pm 16.2 NNW 16 23 1012.9 - 3.8 Rain - - - - - -
19/11:30am 16.3 NW 16 22 1013.5 - 2.8 - - - - - - -
19/11:00am 16.4 WNW 15 21 1013.4 - 1.6 - - - - - - -
19/10:30am 17.6 WNW 14 23 1013.6 - 0.0 - - - - - - -
19/10:07am 19.7 WNW 16 26 1013.5 - 0.0 - - - - - - -
19/10:00am 19.9 NW 17 26 1013.6 - 0.0 - - - - - - -
19/09:57am 19.5 NW 17 26 1013.6 - 0.0 - - - - - - -
19/09:30am 15.3 NNW 12 15 1013.8 - 0.0 - - - - - - -
19/09:00am 14.3 NNW 10 15 1014.1 - 0.4 - - - - - - -
19/08:30am 14.5 N 7 9 1013.1 - 0.4 - - - - - - -
19/08:00am 13.4 NNE 7 8 1013.4 - 0.4 - - - - - - -
19/07:30am 13.4 N 8 8 1013.4 - 0.4 - - - - - - -
19/07:00am 13.2 NW 4 6 1013.5 - 0.4 - - - - - - -
19/06:30am 13.5 NNW 4 5 1013.5 - 0.4 - - - - - - -
19/06:00am 13.3 WNW 2 4 1013.8 - 0.4 - - - - - - -
19/05:30am 13.5 NNW 3 4 1013.9 - 0.4 - - - - - - -
19/05:00am 13.7 N 6 8 1014.2 - 0.4 - - - - - - -
19/04:30am 13.4 N 9 10 1014.5 - 0.2 - - - - - - -
19/04:00am 13.6 N 9 10 1015.1 - 0.2 - - - - - - -
19/03:30am 14.1 N 9 12 1015.6 - 0.2 - - - - - - -
19/03:00am 13.9 N 10 11 1016.1 - 0.2 - - - - - - -
19/02:30am 14.1 N 10 12 1016.6 - 0.2 - - - - - - -
19/02:00am 13.9 NNW 9 11 1017.0 - 0.2 - - - - - - -
19/01:30am 13.7 N 13 15 1017.2 - 0.2 - - - - - - -
19/01:00am 13.8 N 13 15 1017.8 - 0.2 - - - - - - -
19/12:30am 14.1 N 12 14 1018.3 - 0.2 - - - - - - -
19/12:00am 14.1 N 11 13 1018.7 - 0.2 - - - - - - -
 
Date/Time
EDT
Temp
°C
Wind Pressure Rain since
9am
mm
Weather Cloud Vis
km
Sea
Height
m
Swell
Dir  Spd
kts
Gust
kts
hPa Trend Height
m
Period
s
Dir
18/11:30pm 14.4 N 11 13 1019.1 - 0.2 - - - - - - -
18/11:00pm 14.6 N 13 14 1019.6 - 0.2 - - - - - - -
18/10:30pm 14.5 NNW 10 14 1019.9 - 0.2 - - - - - - -
18/10:00pm 14.3 NNW 10 12 1019.8 - 0.2 - - - - - - -
18/09:30pm 14.4 N 11 13 1019.6 - 0.2 - - - - - - -
18/09:00pm 14.6 N 11 14 1019.6 - 0.2 - - - - - - -
18/08:30pm 14.8 N 12 15 1019.6 - 0.2 - - - - - - -
18/08:00pm 14.8 N 11 13 1019.3 - 0.2 - - - - - - -
18/07:30pm 14.8 NNW 12 14 1018.9 - 0.2 - - - - - - -
18/07:00pm 15.3 N 12 14 1018.8 - 0.2 - - - - - - -
18/06:30pm 15.7 N 13 15 1018.7 - 0.2 - - - - - - -
18/06:00pm 15.2 NNW 10 13 1018.9 - 0.2 - - - - - - -
18/05:30pm 16.3 N 10 14 1019.0 - 0.2 - - - - - - -
18/05:00pm 16.8 N 11 14 1019.0 - 0.2 - - - - - - -
18/04:30pm 16.7 N 12 15 1019.2 - 0.2 - - - - - - -
18/04:00pm 17.4 N 13 16 1019.3 - 0.2 - - - - - - -
18/03:30pm 17.8 N 14 17 1019.7 - 0.2 - - - - - - -
18/03:00pm 18.2 N 15 18 1020.0 - 0.2 - - - - - - -
18/02:30pm 18.6 N 11 13 1020.3 - 0.2 - - - - - - -
18/02:00pm 17.3 NNE 12 14 1020.7 - 0.2 - - - - - - -
18/01:30pm 18.5 NNE 10 11 1021.0 - 0.2 - - - - - - -
18/01:00pm 18.4 N 10 12 1021.4 - 0.2 - - - - - - -
18/12:30pm 17.3 N 11 13 1021.8 - 0.2 - - - - - - -
18/12:00pm 17.5 NNE 8 9 1022.2 - 0.2 Recent precip. - - - - - -
18/11:30am 16.8 NNE 7 9 1022.3 - 0.0 - - - - - - -
18/11:00am 16.5 NNE 8 9 1022.8 - 0.0 - - - - - - -
18/10:30am 17.2 ENE 6 7 1022.8 - 0.0 - - - - - - -
18/10:00am 16.7 E 5 6 1022.8 - 0.0 - - - - - - -
18/09:30am 16.1 NE 4 5 1022.9 - 0.0 - - - - - - -
18/09:00am 15.6 N 4 5 1023.0 - 0.0 - - - - - - -
18/08:30am 15.2 NNW 5 7 1023.0 - 0.0 - - - - - - -
18/08:00am 14.9 N 7 8 1022.7 - 0.0 - - - - - - -
18/07:30am 14.3 N 8 9 1022.6 - 0.0 - - - - - - -
18/07:00am 13.9 N 7 8 1022.4 - 0.0 - - - - - - -
18/06:30am 13.5 N 6 6 1022.4 - 0.0 - - - - - - -
18/06:00am 13.6 N 6 6 1022.2 - 0.0 - - - - - - -
18/05:30am 13.6 NNW 5 6 1022.2 - 0.0 - - - - - - -
18/05:00am 13.4 NNW 6 7 1022.2 - 0.0 - - - - - - -

Other Formats:

Comma delimited format used in spreadsheet applications
http://www.bom.gov.au/fwo/IDT60701/IDT60701.94983.axf

JavaScript Object Notation format (JSON) in row-major order
http://www.bom.gov.au/fwo/IDT60701/IDT60701.94983.json